Kingville, South Carolina
Current Conditions -  °F | °C
As of 4:58 AM on Friday 31 Oct 2014 (Local Time) from KMMT Reporting Station
Clear Clear  
Wind Chill:   Ceiling: Unl
Heat Index:   Visibility: 10mi
Dew Point:   Wind: 2mph
Humidity: 83%   Direction: 50°NE
Pressure: 29.92"   Gusts: NA
Location:  33.8428°N, 80.7414°W
Report Text: KMMT 310858Z AUTO 05002KT 10SM CLR 08/06 A2992 RMK AO2 SLP134 T00840057 57006
Loading
Personal Weather Stations






























Interactive Weather Map
Tropical Storm Tracking
New forecast layout! Learn more

10-Day Weather Forecast

Advertisements
Track Severe Weather on mobile